createdAt,value
2023-03-18T00:01:04.190Z,24.98
2023-03-18T00:03:32.315Z,24.83
2023-03-18T00:06:09.586Z,25.75
2023-03-18T00:08:37.841Z,27.23
2023-03-18T00:11:05.657Z,26.70
2023-03-18T00:13:34.713Z,26.48
2023-03-18T00:16:02.856Z,26.13
2023-03-18T00:18:31.394Z,30.17
2023-03-18T00:21:00.128Z,25.67
2023-03-18T00:23:28.023Z,28.05
2023-03-18T00:25:57.293Z,36.17
2023-03-18T00:28:24.976Z,29.38
2023-03-18T00:30:52.356Z,31.83
2023-03-18T00:33:20.299Z,34.22
2023-03-18T00:35:48.380Z,34.47
2023-03-18T00:38:20.891Z,33.22
2023-03-18T00:41:01.655Z,29.73
2023-03-18T00:43:33.664Z,33.20
2023-03-18T00:46:01.231Z,31.50
2023-03-18T00:48:28.323Z,32.85
2023-03-18T00:50:56.054Z,31.02
2023-03-18T00:53:25.215Z,31.63
2023-03-18T00:55:52.628Z,32.20
2023-03-18T00:58:19.669Z,28.70
2023-03-18T01:00:47.105Z,24.95
2023-03-18T01:03:14.442Z,23.17
2023-03-18T01:05:42.468Z,23.73
2023-03-18T01:08:09.494Z,21.45
2023-03-18T01:10:36.546Z,21.67
2023-03-18T01:13:03.500Z,21.50
2023-03-18T01:15:30.553Z,21.77
2023-03-18T01:17:58.526Z,20.42
2023-03-18T01:20:25.753Z,20.55
2023-03-18T01:22:52.864Z,20.65
2023-03-18T01:25:20.451Z,20.75
2023-03-18T01:27:47.524Z,21.00
2023-03-18T01:30:15.011Z,22.65
2023-03-18T01:32:44.004Z,22.48
2023-03-18T01:35:12.408Z,21.20
2023-03-18T01:37:40.027Z,22.02
2023-03-18T01:40:10.260Z,20.17
2023-03-18T01:42:37.865Z,20.38
2023-03-18T01:45:19.619Z,19.95
2023-03-18T01:47:47.409Z,20.40
2023-03-18T01:50:20.049Z,20.20
2023-03-18T01:52:49.128Z,19.10
2023-03-18T01:55:20.256Z,18.67
2023-03-18T01:57:49.501Z,18.65
2023-03-18T02:00:17.206Z,18.65
2023-03-18T02:02:46.431Z,17.90
2023-03-18T02:05:18.272Z,17.77
2023-03-18T02:07:46.426Z,17.95
2023-03-18T02:10:20.378Z,17.92
2023-03-18T02:12:52.129Z,17.23
2023-03-18T02:15:22.695Z,17.30
2023-03-18T02:18:07.314Z,17.83
2023-03-18T02:20:40.815Z,17.58
2023-03-18T02:23:22.611Z,17.02
2023-03-18T02:26:28.726Z,17.02
2023-03-18T02:28:59.749Z,17.13
2023-03-18T02:31:27.369Z,17.20
2023-03-18T02:33:54.744Z,16.63
2023-03-18T02:36:28.790Z,16.58
2023-03-18T02:41:30.331Z,16.83
2023-03-18T02:43:57.421Z,17.85
2023-03-18T02:46:33.503Z,17.02
2023-03-18T02:49:03.012Z,16.98
2023-03-18T02:51:30.667Z,16.92
2023-03-18T02:54:07.094Z,16.88
2023-03-18T02:56:34.572Z,16.60
2023-03-18T02:59:01.658Z,16.95
2023-03-18T03:01:29.286Z,16.80
2023-03-18T03:03:56.554Z,16.88
2023-03-18T03:06:24.489Z,16.33
2023-03-18T03:08:51.923Z,17.00
2023-03-18T03:11:19.732Z,16.48
2023-03-18T03:13:47.176Z,16.92
2023-03-18T03:16:16.382Z,17.50
2023-03-18T03:18:44.102Z,16.88
2023-03-18T03:21:13.116Z,17.38
2023-03-18T03:23:41.460Z,17.08
2023-03-18T03:26:08.471Z,16.90
2023-03-18T03:28:35.778Z,17.02
2023-03-18T03:31:03.317Z,17.10
2023-03-18T03:33:30.402Z,17.08
2023-03-18T03:35:58.389Z,17.00
2023-03-18T03:38:26.478Z,16.85
2023-03-18T03:40:54.308Z,16.13
2023-03-18T03:43:21.459Z,17.13
2023-03-18T03:45:49.101Z,16.70
2023-03-18T03:48:16.093Z,16.27
2023-03-18T03:50:43.111Z,16.83
2023-03-18T03:53:10.832Z,17.00
2023-03-18T03:55:38.083Z,16.73
2023-03-18T03:58:05.411Z,16.27
2023-03-18T04:00:33.530Z,17.27
2023-03-18T04:03:00.976Z,17.02
2023-03-18T04:05:28.303Z,17.25
2023-03-18T04:07:55.750Z,16.75
2023-03-18T04:10:22.970Z,16.95
2023-03-18T04:12:50.556Z,16.70
2023-03-18T04:17:52.017Z,16.85
2023-03-18T04:20:19.488Z,16.45
2023-03-18T04:22:46.866Z,17.02
2023-03-18T04:25:17.133Z,16.95
2023-03-18T04:27:44.309Z,16.88
2023-03-18T04:30:13.143Z,17.27
2023-03-18T04:32:40.173Z,17.65
2023-03-18T04:35:07.785Z,17.25
2023-03-18T04:37:37.413Z,16.98
2023-03-18T04:40:05.970Z,17.52
2023-03-18T04:42:33.240Z,18.00
2023-03-18T04:45:00.237Z,18.10
2023-03-18T04:47:28.124Z,18.52
2023-03-18T04:49:55.248Z,17.30
2023-03-18T04:52:22.274Z,16.80
2023-03-18T04:54:49.260Z,17.83
2023-03-18T04:57:17.012Z,17.10
2023-03-18T04:59:45.223Z,18.10
2023-03-18T05:02:12.209Z,17.98
2023-03-18T05:04:39.969Z,17.75
2023-03-18T05:07:07.283Z,18.50
2023-03-18T05:09:34.476Z,17.98
2023-03-18T05:12:01.512Z,19.23
2023-03-18T05:14:29.112Z,21.30
2023-03-18T05:16:56.269Z,22.20
2023-03-18T05:19:24.197Z,25.75
2023-03-18T05:21:51.247Z,28.65
2023-03-18T05:24:18.383Z,22.90
2023-03-18T05:26:45.374Z,22.05
2023-03-18T05:29:12.445Z,23.15
2023-03-18T05:31:39.682Z,25.02
2023-03-18T05:34:07.340Z,23.95
2023-03-18T05:36:34.674Z,22.33
2023-03-18T05:39:01.802Z,18.50
2023-03-18T05:41:28.769Z,18.15
2023-03-18T05:43:55.928Z,18.15
2023-03-18T05:46:23.155Z,20.63
2023-03-18T05:48:50.305Z,17.90
2023-03-18T05:51:17.369Z,19.15
2023-03-18T05:53:44.688Z,19.13
2023-03-18T05:56:12.509Z,23.65
2023-03-18T05:58:40.400Z,18.45
2023-03-18T06:01:07.504Z,21.40
2023-03-18T06:03:34.890Z,22.77
2023-03-18T06:06:02.183Z,22.00
2023-03-18T06:08:29.392Z,19.67
2023-03-18T06:10:56.546Z,18.98
2023-03-18T06:13:24.046Z,19.98
2023-03-18T06:15:57.447Z,21.83
2023-03-18T06:18:24.513Z,19.50
2023-03-18T06:20:51.579Z,19.10
2023-03-18T06:23:19.000Z,19.75
2023-03-18T06:25:46.860Z,18.23
2023-03-18T06:28:13.881Z,20.52
2023-03-18T06:30:41.021Z,18.83
2023-03-18T06:33:09.860Z,18.50
2023-03-18T06:35:37.058Z,17.90
2023-03-18T06:38:04.502Z,18.02
2023-03-18T06:40:32.324Z,17.58
2023-03-18T06:42:59.372Z,18.27
2023-03-18T06:45:26.357Z,17.92
2023-03-18T06:47:53.841Z,18.08
2023-03-18T06:50:20.938Z,18.48
2023-03-18T06:52:48.226Z,17.77
2023-03-18T06:55:15.873Z,19.17
2023-03-18T06:57:43.061Z,19.38
2023-03-18T07:00:11.170Z,18.75
2023-03-18T07:02:39.725Z,19.33
2023-03-18T07:05:07.977Z,18.83
2023-03-18T07:07:37.700Z,18.13
2023-03-18T07:10:10.595Z,18.73
2023-03-18T07:12:37.670Z,19.40
2023-03-18T07:15:04.980Z,19.23
2023-03-18T07:17:31.985Z,18.95
2023-03-18T07:19:59.068Z,18.83
2023-03-18T07:22:26.278Z,19.45
2023-03-18T07:24:53.799Z,19.40
2023-03-18T07:27:20.829Z,19.27
2023-03-18T07:29:47.832Z,21.60
2023-03-18T07:32:14.968Z,18.63
2023-03-18T07:34:42.659Z,17.85
2023-03-18T07:37:09.776Z,18.27
2023-03-18T07:39:37.457Z,18.08
2023-03-18T07:42:04.593Z,18.05
2023-03-18T07:44:31.639Z,17.65
2023-03-18T07:46:58.889Z,19.45
2023-03-18T07:49:26.150Z,19.52
2023-03-18T07:51:53.221Z,18.17
2023-03-18T07:54:20.324Z,17.23
2023-03-18T07:56:47.333Z,18.73
2023-03-18T07:59:16.115Z,20.35
2023-03-18T08:01:45.022Z,18.83
2023-03-18T08:04:12.810Z,25.80
2023-03-18T08:06:40.012Z,29.65
2023-03-18T08:09:07.140Z,32.53
2023-03-18T08:11:34.191Z,23.23
2023-03-18T08:14:01.691Z,16.80
2023-03-18T08:16:29.493Z,15.68
2023-03-18T08:18:56.619Z,15.90
2023-03-18T08:21:23.851Z,18.38
2023-03-18T08:23:51.012Z,17.30
2023-03-18T08:26:18.008Z,15.55
2023-03-18T08:28:45.014Z,15.23
2023-03-18T08:31:12.294Z,16.10
2023-03-18T08:33:39.311Z,15.32
2023-03-18T08:36:08.500Z,15.95
2023-03-18T08:38:35.933Z,15.90
2023-03-18T08:41:04.037Z,16.02
2023-03-18T08:43:31.035Z,15.32
2023-03-18T08:45:58.777Z,15.00
2023-03-18T08:48:26.303Z,15.45
2023-03-18T08:50:53.806Z,15.65
2023-03-18T08:53:20.982Z,16.98
2023-03-18T08:55:48.619Z,16.45
2023-03-18T08:58:15.734Z,16.67
2023-03-18T09:00:43.118Z,15.25
2023-03-18T09:03:10.291Z,15.23
2023-03-18T09:05:38.754Z,14.82
2023-03-18T09:08:06.731Z,15.35
2023-03-18T09:10:34.358Z,15.00
2023-03-18T09:13:01.316Z,15.30
2023-03-18T09:15:28.415Z,14.70
2023-03-18T09:18:10.432Z,15.13
2023-03-18T09:20:39.340Z,16.00
2023-03-18T09:23:07.298Z,15.32
2023-03-18T09:25:35.322Z,15.05
2023-03-18T09:28:02.848Z,15.05
2023-03-18T09:30:30.309Z,15.52
2023-03-18T09:32:57.740Z,15.02
2023-03-18T09:35:25.332Z,15.35
2023-03-18T09:37:54.039Z,15.10
2023-03-18T09:40:27.160Z,14.93
2023-03-18T09:42:59.981Z,14.80
2023-03-18T09:46:02.136Z,15.32
2023-03-18T09:48:39.365Z,15.88
2023-03-18T09:51:50.458Z,15.15
2023-03-18T09:54:41.126Z,17.13
2023-03-18T09:57:29.853Z,15.93
2023-03-18T10:00:09.293Z,15.30
2023-03-18T10:02:45.673Z,15.52
2023-03-18T10:05:19.868Z,14.52
2023-03-18T10:07:50.193Z,15.23
2023-03-18T10:10:22.409Z,15.25
2023-03-18T10:12:57.257Z,15.30
2023-03-18T10:15:34.570Z,17.50
2023-03-18T10:18:10.522Z,15.13
2023-03-18T10:20:56.118Z,15.45
2023-03-18T10:23:49.832Z,15.40
2023-03-18T10:26:30.828Z,15.82
2023-03-18T10:29:28.378Z,15.93
2023-03-18T10:32:03.494Z,16.98
2023-03-18T10:34:40.942Z,15.27
2023-03-18T10:37:45.091Z,16.30
2023-03-18T10:40:17.851Z,15.80
2023-03-18T10:42:46.012Z,15.10
2023-03-18T10:45:25.981Z,15.50
2023-03-18T10:48:06.255Z,15.77
2023-03-18T10:50:46.457Z,15.98
2023-03-18T10:53:18.037Z,15.43
2023-03-18T10:56:11.583Z,15.10
2023-03-18T10:58:40.093Z,16.90
2023-03-18T11:01:10.089Z,15.27
2023-03-18T11:03:45.769Z,17.30
2023-03-18T11:06:21.651Z,14.77
2023-03-18T11:08:49.712Z,15.93
2023-03-18T11:11:20.646Z,15.73
2023-03-18T11:13:56.009Z,16.35
2023-03-18T11:16:42.653Z,16.63
2023-03-18T11:19:28.161Z,17.83
2023-03-18T11:22:22.976Z,15.65
2023-03-18T11:25:03.166Z,15.93
2023-03-18T11:27:42.714Z,15.20
2023-03-18T11:30:33.293Z,15.48
2023-03-18T11:33:11.992Z,15.82
2023-03-18T11:35:50.718Z,16.95
2023-03-18T11:38:26.231Z,15.70
2023-03-18T11:40:53.474Z,16.45
2023-03-18T11:43:23.648Z,15.43
2023-03-18T11:45:52.438Z,16.38
2023-03-18T11:48:40.506Z,18.92
2023-03-18T11:51:24.602Z,15.98
2023-03-18T11:54:01.686Z,15.80
2023-03-18T11:56:39.343Z,15.85
2023-03-18T11:59:25.101Z,15.80
2023-03-18T12:02:17.747Z,18.25
2023-03-18T12:05:11.060Z,15.52
2023-03-18T12:07:47.400Z,15.70
2023-03-18T12:10:19.791Z,16.02
2023-03-18T12:13:11.858Z,15.75
2023-03-18T12:15:55.783Z,15.68
2023-03-18T12:18:43.938Z,16.70
2023-03-18T12:21:43.119Z,15.75
2023-03-18T12:24:12.826Z,17.50
2023-03-18T12:26:54.950Z,17.33
2023-03-18T12:29:36.569Z,15.68
2023-03-18T12:32:09.397Z,16.15
2023-03-18T12:34:40.400Z,15.60
2023-03-18T12:37:20.935Z,16.52
2023-03-18T12:40:25.701Z,16.00
2023-03-18T12:42:58.501Z,16.10
2023-03-18T12:45:40.977Z,16.20
2023-03-18T12:48:17.970Z,16.63
2023-03-18T12:51:16.474Z,16.27
2023-03-18T12:53:49.161Z,16.35
2023-03-18T12:56:22.588Z,16.35
2023-03-18T12:59:11.792Z,16.33
2023-03-18T13:01:57.695Z,16.10
2023-03-18T13:04:32.945Z,16.58
2023-03-18T13:07:06.145Z,16.70
2023-03-18T13:09:51.126Z,16.30
2023-03-18T13:12:28.851Z,16.02
2023-03-18T13:15:27.889Z,16.23
2023-03-18T13:18:00.049Z,16.52
2023-03-18T13:20:34.127Z,16.40
2023-03-18T13:23:16.105Z,15.82
2023-03-18T13:26:16.659Z,16.48
2023-03-18T13:29:00.329Z,15.80
2023-03-18T13:31:40.056Z,15.95
2023-03-18T13:34:41.278Z,16.63
2023-03-18T13:37:30.022Z,15.20
2023-03-18T13:40:14.896Z,15.90
2023-03-18T13:42:42.674Z,15.48
2023-03-18T13:45:33.752Z,15.75
2023-03-18T13:48:07.572Z,16.58
2023-03-18T13:50:39.882Z,16.13
2023-03-18T13:53:17.601Z,15.77
2023-03-18T13:55:50.221Z,16.17
2023-03-18T13:58:26.043Z,15.98
2023-03-18T14:00:55.842Z,16.13
2023-03-18T14:03:30.674Z,16.58
2023-03-18T14:06:14.013Z,17.30
2023-03-18T14:08:42.991Z,16.35
2023-03-18T14:11:26.093Z,16.73
2023-03-18T14:13:56.858Z,17.17
2023-03-18T14:16:30.076Z,17.25
2023-03-18T14:19:14.490Z,16.80
2023-03-18T14:21:51.044Z,17.42
2023-03-18T14:24:18.026Z,17.02
2023-03-18T14:27:00.064Z,16.95
2023-03-18T14:29:37.741Z,17.30
2023-03-18T14:32:08.591Z,17.23
2023-03-18T14:34:54.878Z,16.70
2023-03-18T14:37:30.284Z,17.23
2023-03-18T14:40:14.109Z,16.65
2023-03-18T14:43:01.014Z,16.77
2023-03-18T14:45:33.559Z,17.25
2023-03-18T14:48:05.363Z,17.30
2023-03-18T14:50:54.136Z,16.73
2023-03-18T14:53:34.592Z,18.05
2023-03-18T14:56:04.179Z,17.08
2023-03-18T14:58:33.461Z,18.35
2023-03-18T15:01:09.934Z,19.20
2023-03-18T15:03:40.770Z,19.35
2023-03-18T15:06:08.437Z,19.20
2023-03-18T15:08:48.018Z,19.10
2023-03-18T15:11:16.714Z,18.38
2023-03-18T15:13:44.955Z,18.25
2023-03-18T15:16:14.674Z,18.98
2023-03-18T15:18:41.951Z,18.92
2023-03-18T15:21:18.292Z,18.15
2023-03-18T15:23:52.024Z,17.63
2023-03-18T15:26:21.716Z,17.63
2023-03-18T15:28:53.153Z,17.98
2023-03-18T15:31:39.191Z,17.92
2023-03-18T15:34:29.534Z,18.55
2023-03-18T15:37:01.741Z,18.30
2023-03-18T15:39:32.289Z,17.45
2023-03-18T15:42:00.813Z,18.48
2023-03-18T15:44:36.361Z,18.77
2023-03-18T15:47:14.325Z,18.73
2023-03-18T15:50:18.755Z,18.77
2023-03-18T15:52:47.152Z,18.30
2023-03-18T15:55:29.388Z,18.20
2023-03-18T15:57:58.433Z,19.38
2023-03-18T16:00:25.858Z,18.45
2023-03-18T16:02:54.212Z,21.70
2023-03-18T16:05:26.276Z,24.20
2023-03-18T16:07:54.108Z,20.83
2023-03-18T16:10:23.255Z,19.50
2023-03-18T16:12:55.350Z,45.58
2023-03-18T16:15:24.416Z,64.50
2023-03-18T16:17:53.568Z,103.43
2023-03-18T16:20:31.652Z,45.47
2023-03-18T16:22:59.859Z,22.30
2023-03-18T16:25:27.160Z,23.95
2023-03-18T16:27:59.789Z,18.30
2023-03-18T16:30:30.061Z,21.13
2023-03-18T16:32:58.315Z,89.90
2023-03-18T16:35:33.570Z,85.32
2023-03-18T16:38:01.282Z,38.42
2023-03-18T16:40:30.786Z,20.02
2023-03-18T16:42:58.001Z,21.02
2023-03-18T16:45:30.386Z,16.70
2023-03-18T16:48:01.344Z,18.35
2023-03-18T16:50:36.596Z,17.60
2023-03-18T16:53:11.421Z,19.27
2023-03-18T16:55:38.400Z,26.98
2023-03-18T16:58:05.469Z,16.90
2023-03-18T17:00:33.229Z,17.35
2023-03-18T17:03:01.432Z,23.27
2023-03-18T17:05:29.180Z,23.08
2023-03-18T17:07:56.458Z,17.33
2023-03-18T17:10:26.280Z,16.45
2023-03-18T17:12:59.563Z,16.95
2023-03-18T17:15:32.096Z,17.65
2023-03-18T17:17:59.912Z,17.35
2023-03-18T17:20:29.120Z,18.45
2023-03-18T17:22:56.439Z,18.10
2023-03-18T17:25:25.878Z,17.42
2023-03-18T17:27:56.676Z,17.20
2023-03-18T17:30:37.027Z,17.05
2023-03-18T17:33:14.414Z,16.90
2023-03-18T17:35:41.374Z,16.88
2023-03-18T17:38:10.119Z,16.85
2023-03-18T17:40:37.706Z,17.35
2023-03-18T17:43:04.919Z,17.20
2023-03-18T17:45:34.495Z,17.23
2023-03-18T17:48:23.667Z,17.00
2023-03-18T17:50:54.262Z,17.88
2023-03-18T17:53:37.321Z,17.70
2023-03-18T17:56:06.460Z,17.98
2023-03-18T17:58:34.703Z,18.83
2023-03-18T18:01:29.067Z,18.27
2023-03-18T18:04:00.438Z,17.83
2023-03-18T18:06:29.574Z,21.45
2023-03-18T18:09:00.994Z,25.70
2023-03-18T18:11:48.699Z,21.52
2023-03-18T18:14:24.773Z,20.23
2023-03-18T18:16:53.835Z,18.05
2023-03-18T18:19:20.905Z,17.92
2023-03-18T18:21:49.425Z,18.15
2023-03-18T18:24:28.957Z,18.17
2023-03-18T18:26:56.698Z,16.95
2023-03-18T18:29:25.403Z,17.05
2023-03-18T18:31:52.974Z,19.65
2023-03-18T18:34:21.477Z,17.77
2023-03-18T18:36:50.881Z,17.30
2023-03-18T18:39:18.350Z,17.40
2023-03-18T18:41:46.533Z,17.73
2023-03-18T18:44:13.864Z,17.77
2023-03-18T18:46:41.094Z,17.70
2023-03-18T18:49:22.066Z,16.98
2023-03-18T18:51:55.028Z,17.85
2023-03-18T18:54:22.808Z,17.20
2023-03-18T18:56:50.486Z,17.50
2023-03-18T18:59:33.853Z,17.58
2023-03-18T19:02:01.129Z,17.33
2023-03-18T19:04:29.274Z,19.33
2023-03-18T19:06:56.423Z,18.30
2023-03-18T19:09:25.457Z,20.02
2023-03-18T19:11:53.946Z,18.00
2023-03-18T19:14:26.544Z,17.55
2023-03-18T19:16:56.516Z,17.42
2023-03-18T19:19:32.620Z,17.33
2023-03-18T19:22:00.555Z,17.70
2023-03-18T19:24:31.055Z,17.88
2023-03-18T19:27:02.291Z,17.98
2023-03-18T19:29:30.016Z,22.15
2023-03-18T19:31:57.269Z,18.67
2023-03-18T19:34:24.909Z,18.90
2023-03-18T19:36:55.362Z,17.58
2023-03-18T19:39:23.330Z,18.70
2023-03-18T19:41:51.458Z,18.38
2023-03-18T19:44:21.286Z,18.38
2023-03-18T19:46:50.140Z,18.33
2023-03-18T19:49:26.564Z,18.48
2023-03-18T19:51:54.553Z,17.88
2023-03-18T19:54:36.886Z,18.77
2023-03-18T19:57:24.023Z,19.20
2023-03-18T19:59:53.076Z,18.63
2023-03-18T20:02:34.166Z,18.90
2023-03-18T20:05:17.031Z,18.98
2023-03-18T20:07:44.109Z,21.48
2023-03-18T20:10:12.618Z,18.63
2023-03-18T20:12:42.295Z,18.85
2023-03-18T20:15:21.158Z,19.10
2023-03-18T20:17:50.145Z,19.10
2023-03-18T20:20:19.746Z,20.88
2023-03-18T20:22:53.090Z,22.42
2023-03-18T20:25:25.777Z,20.03
2023-03-18T20:27:56.317Z,21.27
2023-03-18T20:30:26.487Z,19.08
2023-03-18T20:32:53.641Z,18.80
2023-03-18T20:35:21.955Z,18.23
2023-03-18T20:37:49.207Z,19.27
2023-03-18T20:40:28.312Z,19.10
2023-03-18T20:42:55.776Z,18.52
2023-03-18T20:45:24.122Z,20.20
2023-03-18T20:47:51.350Z,20.00
2023-03-18T20:50:26.120Z,21.08
2023-03-18T20:52:53.097Z,21.20
2023-03-18T20:55:25.512Z,21.77
2023-03-18T20:57:53.782Z,25.83
2023-03-18T21:00:24.025Z,24.00
2023-03-18T21:02:53.992Z,22.98
2023-03-18T21:05:22.268Z,22.70
2023-03-18T21:07:49.758Z,25.55
2023-03-18T21:10:19.792Z,22.33
2023-03-18T21:12:47.333Z,21.38
2023-03-18T21:15:23.780Z,23.83
2023-03-18T21:17:51.277Z,20.65
2023-03-18T21:20:22.889Z,19.17
2023-03-18T21:22:50.938Z,20.20
2023-03-18T21:25:23.198Z,19.90
2023-03-18T21:27:50.978Z,19.45
2023-03-18T21:30:19.786Z,19.52
2023-03-18T21:32:47.402Z,19.60
2023-03-18T21:35:21.820Z,20.10
2023-03-18T21:37:48.990Z,19.95
2023-03-18T21:40:18.680Z,20.30
2023-03-18T21:42:46.622Z,20.38
2023-03-18T21:45:16.199Z,19.95
2023-03-18T21:47:43.602Z,20.10
2023-03-18T21:50:22.798Z,20.73
2023-03-18T21:52:49.966Z,20.98
2023-03-18T21:55:17.084Z,20.25
2023-03-18T21:57:44.851Z,20.90
2023-03-18T22:00:21.643Z,20.33
2023-03-18T22:02:49.421Z,20.63
2023-03-18T22:05:22.970Z,20.00
2023-03-18T22:07:51.004Z,20.92
2023-03-18T22:10:23.597Z,22.40
2023-03-18T22:12:50.987Z,20.55
2023-03-18T22:15:29.170Z,21.95
2023-03-18T22:17:56.630Z,21.83
2023-03-18T22:20:23.629Z,22.05
2023-03-18T22:22:50.608Z,23.27
2023-03-18T22:25:33.918Z,21.33
2023-03-18T22:28:01.387Z,24.52
2023-03-18T22:30:31.152Z,20.67
2023-03-18T22:33:00.189Z,21.85
2023-03-18T22:35:29.430Z,19.80
2023-03-18T22:37:56.489Z,19.38
2023-03-18T22:40:29.539Z,19.45
2023-03-18T22:43:01.608Z,19.08
2023-03-18T22:45:33.878Z,19.50
2023-03-18T22:48:04.758Z,19.83
2023-03-18T22:50:34.712Z,20.17
2023-03-18T22:53:05.596Z,20.00
2023-03-18T22:55:36.384Z,19.73
2023-03-18T22:58:03.572Z,19.77
2023-03-18T23:00:42.123Z,19.95
2023-03-18T23:03:28.858Z,20.80
2023-03-18T23:05:58.763Z,20.27
2023-03-18T23:08:27.723Z,20.98
2023-03-18T23:10:59.646Z,23.02
2023-03-18T23:13:38.157Z,22.92
2023-03-18T23:16:07.314Z,20.98
2023-03-18T23:18:34.997Z,21.10
2023-03-18T23:21:01.996Z,20.45
2023-03-18T23:23:30.480Z,20.52
2023-03-18T23:25:58.021Z,21.98
2023-03-18T23:28:25.225Z,20.90
2023-03-18T23:30:53.954Z,20.85
2023-03-18T23:33:21.261Z,21.38
2023-03-18T23:35:48.971Z,21.13
2023-03-18T23:38:16.226Z,21.27
2023-03-18T23:40:43.274Z,21.10
2023-03-18T23:43:10.518Z,21.38
2023-03-18T23:45:38.768Z,21.60
2023-03-18T23:48:06.831Z,21.55
2023-03-18T23:50:34.207Z,20.65
2023-03-18T23:53:01.371Z,21.63
2023-03-18T23:55:35.170Z,21.08
2023-03-18T23:58:03.064Z,22.35
